WetterOnline ( http://www.wetteronline.de )

Wetter aktuell Herdecke

Aktuelles Wetter: Lüdenscheid (392m)

6-stündlich | Neueste Meldungen
Ortszeit Temperatur Wetter
Do, 15.11. 19:00 2.6° C wolkig
Do, 15.11. 13:00 8.5° C wolkenlos
Do, 15.11. 7:00 2.5° C wolkig
Do, 15.11. 1:00 4.7° C leicht bewölkt
Mi, 14.11. 19:00 7.0° C bewölkt
Mi, 14.11. 13:00 10.0° C leicht bewölkt
Mi, 14.11. 7:00 6.0° C wolkenlos
Mi, 14.11. 1:00 7.8° C bedeckt
Ortszeit Temperatur Wetter
Do, 15.11. 20:00 1.8° C wolkenlos
Do, 15.11. 19:50 1.8° C wolkenlos
Do, 15.11. 19:40 1.9° C wolkenlos
Do, 15.11. 19:30 2.0° C leicht bewölkt
Do, 15.11. 19:20 2.0° C leicht bewölkt
Do, 15.11. 19:10 2.2° C leicht bewölkt
Do, 15.11. 19:00 2.6° C wolkig
Do, 15.11. 18:30 3.0° C leicht bewölkt
Do, 15.11. 18:00 3.2° C wolkenlos
Do, 15.11. 17:30 4.2° C wolkenlos
Do, 15.11. 17:00 5.1° C wolkenlos
Ortszeit Relative Feuchte Sichtweite
Do, 15.11. 19:00 87% 24 km
Do, 15.11. 13:00 72% 45 km
Do, 15.11. 7:00 96% 6 km
Do, 15.11. 1:00 93% 14 km
Mi, 14.11. 19:00 81% 45 km
Mi, 14.11. 13:00 67% 45 km
Mi, 14.11. 7:00 91% 35 km
Mi, 14.11. 1:00 85% 40 km
Ortszeit Relative Feuchte Sichtweite
Do, 15.11. 20:00 90% 20 km
Do, 15.11. 19:50 90% -
Do, 15.11. 19:40 89% -
Do, 15.11. 19:30 88% 22 km
Do, 15.11. 19:20 88% -
Do, 15.11. 19:10 88% -
Do, 15.11. 19:00 87% 24 km
Do, 15.11. 18:30 85% 29 km
Do, 15.11. 18:00 85% 26 km
Do, 15.11. 17:30 81% 29 km
Do, 15.11. 17:00 77% 35 km
Ortszeit Niederschlagsmenge Niederschlagsart
Do, 15.11. 19:00 0.0 l/m2 in 12 Std. -
Do, 15.11. 13:00 0.0 l/m2 in 6 Std. -
Do, 15.11. 7:00 0.0 l/m2 in 12 Std. -
Do, 15.11. 1:00 0.0 l/m2 in 6 Std. -
Mi, 14.11. 19:00 0.0 l/m2 in 12 Std. -
Mi, 14.11. 13:00 0.0 l/m2 in 6 Std. -
Mi, 14.11. 7:00 0.0 l/m2 in 12 Std. -
Mi, 14.11. 1:00 0.0 l/m2 in 6 Std. -
Ortszeit Niederschlagsmenge Niederschlagsart
Do, 15.11. 20:00 0.0 l/m2 in 1 Std. -
Do, 15.11. 19:50 keine Meldung -
Do, 15.11. 19:40 keine Meldung -
Do, 15.11. 19:30 0.0 l/m2 in 1 Std. -
Do, 15.11. 19:20 keine Meldung -
Do, 15.11. 19:10 keine Meldung -
Do, 15.11. 19:00 0.0 l/m2 in 1 Std. -
Do, 15.11. 18:30 0.0 l/m2 in 1 Std. -
Do, 15.11. 18:00 0.0 l/m2 in 1 Std. -
Do, 15.11. 17:30 0.0 l/m2 in 1 Std. -
Do, 15.11. 17:00 0.0 l/m2 in 1 Std. -
Ortszeit Stärke Spitze Richtung
km/h Bft. km/h Grad Sektor
Do, 15.11. 19:00 6 1 11 120° SO
Do, 15.11. 13:00 7 2 14 110° O
Do, 15.11. 7:00 4 1 18 90° O
Do, 15.11. 1:00 7 2 14 130° SO
Mi, 14.11. 19:00 7 2 25 150° SO
Mi, 14.11. 13:00 13 3 28 180° S
Mi, 14.11. 7:00 7 2 29 200° S
Mi, 14.11. 1:00 15 3 30 250° W
Ortszeit Stärke Spitze Richtung
km/h Bft. km/h Grad Sektor
Do, 15.11. 20:00 4 1 11 130° SO
Do, 15.11. 19:50 4 1 - 130° SO
Do, 15.11. 19:40 4 1 - 130° SO
Do, 15.11. 19:30 6 1 9 130° SO
Do, 15.11. 19:20 6 1 - 130° SO
Do, 15.11. 19:10 6 1 - 140° SO
Do, 15.11. 19:00 6 1 9 120° SO
Do, 15.11. 18:30 4 1 7 150° SO
Do, 15.11. 18:00 4 1 7 180° S
Do, 15.11. 17:30 6 1 6 190° S
Do, 15.11. 17:00 4 1 11 180° S
Ortszeit Untergrenze Bedeckung Gattung
total tief tief mittel hoch
Do, 15.11. 19:00 8700 m 8/8 0/8 - - -
Do, 15.11. 13:00 - 0/8 0/8 - - -
Do, 15.11. 7:00 10500 m 8/8 0/8 - - -
Do, 15.11. 1:00 10500 m 3/8 0/8 - - -
Mi, 14.11. 19:00 3900 m 8/8 5/8 - - -
Mi, 14.11. 13:00 660 m 7/8 1/8 - - -
Mi, 14.11. 7:00 - 0/8 0/8 - - -
Mi, 14.11. 1:00 330 m 8/8 8/8 - - -
Ortszeit Bedeckungsgrad in Achtel und Wolkenuntergrenze
Do, 15.11. 20:00 keine Wolken
Do, 15.11. 19:50 keine Wolken
Do, 15.11. 19:40 keine Wolken
Do, 15.11. 19:30 2(8700m) 3(12000m)
Do, 15.11. 19:20 2(8700m) 3(12000m)
Do, 15.11. 19:10 4(8700m) 6(12000m)
Do, 15.11. 19:00 8(8700m) 8(9000m)
Do, 15.11. 18:30 6(8700m)
Do, 15.11. 18:00 2(8700m)
Do, 15.11. 17:30 keine Wolken
Do, 15.11. 17:00 keine Wolken
Ortszeit Luftdruck NN (hPa) Tendenz (hPa in 3 Std.)
Do, 15.11. 19:00 1027 + 0,2
Do, 15.11. 13:00 1026 - 0,7
Do, 15.11. 7:00 1027 - 0,5
Do, 15.11. 1:00 1028 - 0,2
Mi, 14.11. 19:00 1028 - 0,6
Mi, 14.11. 13:00 1029 - 0,7
Mi, 14.11. 7:00 1030 - 0,8
Mi, 14.11. 1:00 1030 + 0,5
Ortszeit Luftdruck NN (hPa) Tendenz (hPa in 3 Std.)
Do, 15.11. 20:00 1027 + 0,3
Do, 15.11. 19:50 1027 keine Meldung
Do, 15.11. 19:40 1027 keine Meldung
Do, 15.11. 19:30 1027 + 0,1
Do, 15.11. 19:20 1027 keine Meldung
Do, 15.11. 19:10 1027 keine Meldung
Do, 15.11. 19:00 1027 + 0,2
Do, 15.11. 18:30 1027 + 0,1
Do, 15.11. 18:00 1027 - 0,1
Do, 15.11. 17:30 1027 - 0,1
Do, 15.11. 17:00 1027 0,0
Ortszeit Schneehöhe (cm)
Do, 15.11. 19:00 0
Do, 15.11. 13:00 0
Do, 15.11. 7:00 0
Do, 15.11. 1:00 0
Mi, 14.11. 19:00 0
Mi, 14.11. 13:00 0
Mi, 14.11. 7:00 0
Mi, 14.11. 1:00 0
Ortszeit Schneehöhe (cm)
Do, 15.11. 20:00 0
Do, 15.11. 19:50 0
Do, 15.11. 19:40 0
Do, 15.11. 19:30 0
Do, 15.11. 19:20 0
Do, 15.11. 19:10 0
Do, 15.11. 19:00 0
Do, 15.11. 18:30 0
Do, 15.11. 18:00 0
Do, 15.11. 17:30 0
Do, 15.11. 17:00 0
Link zu dieser Seite / Seite empfehlen

Das Wetter in ...